Bonnard, Canada
Current Conditions -  °F | °C
As of 2:00 PM on Thursday 23 Oct 2014 (Local Time) from CYRJ Reporting Station
Broken Clouds Broken Clouds  
Wind Chill:   Ceiling: 22000
Heat Index:   Visibility: 40mi
Dew Point: -3°   Wind: 6mph
Humidity: 49%   Direction: 330°NNW
Pressure: 30.2"   Gusts: NA
Location:  50.73°N, 71.02°W
Report Text: CYRJ 231800Z 33005KT 310V040 40SM FEW090 BKN220 07/M03 A3020 RMK AC1CI5 AC TR SLP236
Loading
Personal Weather Stations






























Interactive Weather Map
Tropical Storm Tracking
New forecast layout! Learn more

10-Day Weather Forecast

Advertisements
Track Severe Weather on mobile